sensor_id;sensor_type;location;lat;lon;timestamp;P1;durP1;ratioP1;P2;durP2;ratioP2
20036;SDS011;10179;42.640;23.312;2023-06-14T00:01:37;9.00;;;4.57;;
20036;SDS011;10179;42.640;23.312;2023-06-14T00:04:03;6.30;;;4.40;;
20036;SDS011;10179;42.640;23.312;2023-06-14T00:06:29;7.68;;;4.40;;
20036;SDS011;10179;42.640;23.312;2023-06-14T00:08:55;6.70;;;4.18;;
20036;SDS011;10179;42.640;23.312;2023-06-14T00:11:21;6.07;;;3.75;;
20036;SDS011;10179;42.640;23.312;2023-06-14T00:13:46;7.65;;;4.05;;
20036;SDS011;10179;42.640;23.312;2023-06-14T00:16:12;7.82;;;4.32;;
20036;SDS011;10179;42.640;23.312;2023-06-14T00:18:37;14.35;;;5.10;;
20036;SDS011;10179;42.640;23.312;2023-06-14T00:21:03;6.82;;;4.38;;
20036;SDS011;10179;42.640;23.312;2023-06-14T00:23:30;8.85;;;4.70;;
20036;SDS011;10179;42.640;23.312;2023-06-14T00:25:55;7.85;;;4.57;;
20036;SDS011;10179;42.640;23.312;2023-06-14T00:28:21;7.80;;;4.57;;
20036;SDS011;10179;42.640;23.312;2023-06-14T00:30:46;8.55;;;4.47;;
20036;SDS011;10179;42.640;23.312;2023-06-14T00:33:12;10.57;;;3.85;;
20036;SDS011;10179;42.640;23.312;2023-06-14T00:35:37;6.18;;;3.95;;
20036;SDS011;10179;42.640;23.312;2023-06-14T00:38:03;7.50;;;4.75;;
20036;SDS011;10179;42.640;23.312;2023-06-14T00:40:29;7.75;;;4.32;;
20036;SDS011;10179;42.640;23.312;2023-06-14T00:42:54;8.05;;;4.45;;
20036;SDS011;10179;42.640;23.312;2023-06-14T00:45:20;7.38;;;4.28;;
20036;SDS011;10179;42.640;23.312;2023-06-14T00:47:45;6.68;;;4.30;;
20036;SDS011;10179;42.640;23.312;2023-06-14T00:50:12;8.02;;;4.85;;
20036;SDS011;10179;42.640;23.312;2023-06-14T00:52:38;6.43;;;4.22;;
20036;SDS011;10179;42.640;23.312;2023-06-14T00:55:04;6.88;;;4.28;;
20036;SDS011;10179;42.640;23.312;2023-06-14T00:57:31;8.75;;;4.53;;
20036;SDS011;10179;42.640;23.312;2023-06-14T00:59:56;6.47;;;4.30;;
20036;SDS011;10179;42.640;23.312;2023-06-14T01:02:22;8.77;;;4.80;;
20036;SDS011;10179;42.640;23.312;2023-06-14T01:04:49;8.75;;;4.53;;
20036;SDS011;10179;42.640;23.312;2023-06-14T01:07:39;8.55;;;4.60;;
20036;SDS011;10179;42.640;23.312;2023-06-14T01:15:57;7.00;;;4.03;;
20036;SDS011;10179;42.640;23.312;2023-06-14T01:18:23;5.85;;;4.35;;
20036;SDS011;10179;42.640;23.312;2023-06-14T01:20:51;8.70;;;4.28;;
20036;SDS011;10179;42.640;23.312;2023-06-14T01:23:18;5.90;;;4.07;;
20036;SDS011;10179;42.640;23.312;2023-06-14T01:25:45;8.65;;;4.07;;
20036;SDS011;10179;42.640;23.312;2023-06-14T01:28:12;6.25;;;3.75;;
20036;SDS011;10179;42.640;23.312;2023-06-14T01:30:40;7.80;;;4.25;;
20036;SDS011;10179;42.640;23.312;2023-06-14T01:33:10;7.40;;;4.03;;
20036;SDS011;10179;42.640;23.312;2023-06-14T01:35:38;5.80;;;3.90;;
20036;SDS011;10179;42.640;23.312;2023-06-14T01:38:04;8.43;;;4.15;;
20036;SDS011;10179;42.640;23.312;2023-06-14T01:40:32;5.80;;;3.88;;
20036;SDS011;10179;42.640;23.312;2023-06-14T01:42:59;8.07;;;4.47;;
20036;SDS011;10179;42.640;23.312;2023-06-14T01:45:26;7.90;;;4.75;;
20036;SDS011;10179;42.640;23.312;2023-06-14T01:47:53;7.15;;;4.35;;
20036;SDS011;10179;42.640;23.312;2023-06-14T01:50:20;6.13;;;4.07;;
20036;SDS011;10179;42.640;23.312;2023-06-14T01:52:45;8.77;;;4.15;;
20036;SDS011;10179;42.640;23.312;2023-06-14T01:55:11;8.43;;;4.05;;
20036;SDS011;10179;42.640;23.312;2023-06-14T01:57:36;8.65;;;4.20;;
20036;SDS011;10179;42.640;23.312;2023-06-14T02:00:03;9.75;;;5.15;;
20036;SDS011;10179;42.640;23.312;2023-06-14T02:02:30;6.57;;;4.28;;
20036;SDS011;10179;42.640;23.312;2023-06-14T02:04:55;7.10;;;3.42;;
20036;SDS011;10179;42.640;23.312;2023-06-14T02:07:22;9.30;;;3.83;;
20036;SDS011;10179;42.640;23.312;2023-06-14T02:09:49;6.78;;;4.18;;
20036;SDS011;10179;42.640;23.312;2023-06-14T02:12:14;8.20;;;4.15;;
20036;SDS011;10179;42.640;23.312;2023-06-14T02:14:40;8.57;;;4.43;;
20036;SDS011;10179;42.640;23.312;2023-06-14T02:17:05;5.95;;;3.97;;
20036;SDS011;10179;42.640;23.312;2023-06-14T02:19:31;6.45;;;4.15;;
20036;SDS011;10179;42.640;23.312;2023-06-14T02:21:57;7.07;;;3.80;;
20036;SDS011;10179;42.640;23.312;2023-06-14T02:24:22;8.15;;;3.85;;
20036;SDS011;10179;42.640;23.312;2023-06-14T02:26:48;5.80;;;3.70;;
20036;SDS011;10179;42.640;23.312;2023-06-14T02:29:14;5.90;;;3.92;;
20036;SDS011;10179;42.640;23.312;2023-06-14T02:31:41;7.80;;;4.20;;
20036;SDS011;10179;42.640;23.312;2023-06-14T02:34:06;7.55;;;3.85;;
20036;SDS011;10179;42.640;23.312;2023-06-14T02:36:34;7.55;;;4.00;;
20036;SDS011;10179;42.640;23.312;2023-06-14T02:39:00;7.10;;;4.13;;
20036;SDS011;10179;42.640;23.312;2023-06-14T02:41:25;10.40;;;4.40;;
20036;SDS011;10179;42.640;23.312;2023-06-14T02:43:51;6.55;;;3.50;;
20036;SDS011;10179;42.640;23.312;2023-06-14T02:46:17;6.68;;;4.03;;
20036;SDS011;10179;42.640;23.312;2023-06-14T02:48:43;6.45;;;4.03;;
20036;SDS011;10179;42.640;23.312;2023-06-14T02:51:08;7.00;;;4.07;;
20036;SDS011;10179;42.640;23.312;2023-06-14T02:53:34;5.90;;;3.70;;
20036;SDS011;10179;42.640;23.312;2023-06-14T02:56:00;5.65;;;4.03;;
20036;SDS011;10179;42.640;23.312;2023-06-14T02:58:26;5.82;;;3.28;;
20036;SDS011;10179;42.640;23.312;2023-06-14T03:00:51;5.78;;;3.65;;
20036;SDS011;10179;42.640;23.312;2023-06-14T03:03:18;6.88;;;4.15;;
20036;SDS011;10179;42.640;23.312;2023-06-14T03:05:45;7.18;;;3.63;;
20036;SDS011;10179;42.640;23.312;2023-06-14T03:08:12;5.40;;;3.72;;
20036;SDS011;10179;42.640;23.312;2023-06-14T03:10:48;8.05;;;4.28;;
20036;SDS011;10179;42.640;23.312;2023-06-14T03:13:14;7.07;;;3.97;;
20036;SDS011;10179;42.640;23.312;2023-06-14T03:15:43;6.35;;;3.88;;
20036;SDS011;10179;42.640;23.312;2023-06-14T03:18:10;6.47;;;4.05;;
20036;SDS011;10179;42.640;23.312;2023-06-14T03:20:37;8.70;;;4.30;;
20036;SDS011;10179;42.640;23.312;2023-06-14T03:23:03;8.68;;;4.30;;
20036;SDS011;10179;42.640;23.312;2023-06-14T03:25:29;6.68;;;4.10;;
20036;SDS011;10179;42.640;23.312;2023-06-14T03:27:55;7.15;;;4.03;;
20036;SDS011;10179;42.640;23.312;2023-06-14T03:30:21;6.70;;;3.97;;
20036;SDS011;10179;42.640;23.312;2023-06-14T03:32:46;8.13;;;4.25;;
20036;SDS011;10179;42.640;23.312;2023-06-14T03:35:12;15.43;;;4.25;;
20036;SDS011;10179;42.640;23.312;2023-06-14T03:37:42;10.43;;;4.38;;
20036;SDS011;10179;42.640;23.312;2023-06-14T03:40:08;5.72;;;3.67;;
20036;SDS011;10179;42.640;23.312;2023-06-14T03:42:34;9.80;;;4.70;;
20036;SDS011;10179;42.640;23.312;2023-06-14T03:44:59;11.15;;;4.97;;
20036;SDS011;10179;42.640;23.312;2023-06-14T03:47:25;13.55;;;4.88;;
20036;SDS011;10179;42.640;23.312;2023-06-14T03:49:50;8.23;;;4.78;;
20036;SDS011;10179;42.640;23.312;2023-06-14T03:52:16;5.75;;;3.80;;
20036;SDS011;10179;42.640;23.312;2023-06-14T03:54:42;9.75;;;4.47;;
20036;SDS011;10179;42.640;23.312;2023-06-14T03:57:09;9.35;;;4.15;;
20036;SDS011;10179;42.640;23.312;2023-06-14T03:59:35;7.60;;;3.92;;
20036;SDS011;10179;42.640;23.312;2023-06-14T04:02:01;6.30;;;4.00;;
20036;SDS011;10179;42.640;23.312;2023-06-14T04:04:27;5.60;;;3.53;;
20036;SDS011;10179;42.640;23.312;2023-06-14T04:06:54;7.35;;;3.55;;
20036;SDS011;10179;42.640;23.312;2023-06-14T04:09:21;11.30;;;4.40;;
20036;SDS011;10179;42.640;23.312;2023-06-14T04:11:46;10.75;;;4.10;;
20036;SDS011;10179;42.640;23.312;2023-06-14T04:14:12;13.55;;;4.22;;
20036;SDS011;10179;42.640;23.312;2023-06-14T04:16:37;11.60;;;4.10;;
20036;SDS011;10179;42.640;23.312;2023-06-14T04:19:03;7.82;;;3.83;;
20036;SDS011;10179;42.640;23.312;2023-06-14T04:21:28;8.73;;;4.13;;
20036;SDS011;10179;42.640;23.312;2023-06-14T04:23:54;8.07;;;4.72;;
20036;SDS011;10179;42.640;23.312;2023-06-14T04:26:20;8.77;;;4.30;;
20036;SDS011;10179;42.640;23.312;2023-06-14T04:28:48;17.20;;;4.30;;
20036;SDS011;10179;42.640;23.312;2023-06-14T04:31:15;7.43;;;4.15;;
20036;SDS011;10179;42.640;23.312;2023-06-14T04:33:41;8.68;;;5.15;;
20036;SDS011;10179;42.640;23.312;2023-06-14T04:36:11;10.40;;;4.65;;
20036;SDS011;10179;42.640;23.312;2023-06-14T04:38:38;8.32;;;5.00;;
20036;SDS011;10179;42.640;23.312;2023-06-14T04:41:04;8.25;;;4.95;;
20036;SDS011;10179;42.640;23.312;2023-06-14T04:43:29;7.82;;;4.85;;
20036;SDS011;10179;42.640;23.312;2023-06-14T04:45:56;14.35;;;5.22;;
20036;SDS011;10179;42.640;23.312;2023-06-14T04:48:22;11.13;;;5.50;;
20036;SDS011;10179;42.640;23.312;2023-06-14T04:50:48;11.77;;;5.63;;
20036;SDS011;10179;42.640;23.312;2023-06-14T04:53:17;12.85;;;6.07;;
20036;SDS011;10179;42.640;23.312;2023-06-14T04:55:46;11.10;;;5.28;;
20036;SDS011;10179;42.640;23.312;2023-06-14T04:58:11;13.95;;;5.85;;
20036;SDS011;10179;42.640;23.312;2023-06-14T05:00:37;10.65;;;6.45;;
20036;SDS011;10179;42.640;23.312;2023-06-14T05:03:03;10.38;;;6.40;;
20036;SDS011;10179;42.640;23.312;2023-06-14T05:05:30;11.43;;;6.32;;
20036;SDS011;10179;42.640;23.312;2023-06-14T05:07:57;14.75;;;6.97;;
20036;SDS011;10179;42.640;23.312;2023-06-14T05:10:22;11.88;;;6.50;;
20036;SDS011;10179;42.640;23.312;2023-06-14T05:12:48;15.77;;;6.25;;
20036;SDS011;10179;42.640;23.312;2023-06-14T05:15:14;11.85;;;5.88;;
20036;SDS011;10179;42.640;23.312;2023-06-14T05:17:40;10.00;;;5.25;;
20036;SDS011;10179;42.640;23.312;2023-06-14T05:20:06;13.30;;;5.68;;
20036;SDS011;10179;42.640;23.312;2023-06-14T05:22:32;11.70;;;5.90;;
20036;SDS011;10179;42.640;23.312;2023-06-14T05:24:57;10.95;;;5.43;;
20036;SDS011;10179;42.640;23.312;2023-06-14T05:27:22;9.95;;;5.60;;
20036;SDS011;10179;42.640;23.312;2023-06-14T05:29:49;12.68;;;5.65;;
20036;SDS011;10179;42.640;23.312;2023-06-14T05:32:15;14.20;;;5.85;;
20036;SDS011;10179;42.640;23.312;2023-06-14T05:34:41;11.25;;;5.55;;
20036;SDS011;10179;42.640;23.312;2023-06-14T05:37:06;14.02;;;6.28;;
20036;SDS011;10179;42.640;23.312;2023-06-14T05:39:32;9.32;;;5.93;;
20036;SDS011;10179;42.640;23.312;2023-06-14T05:41:57;9.95;;;5.60;;
20036;SDS011;10179;42.640;23.312;2023-06-14T05:44:23;16.48;;;6.00;;
20036;SDS011;10179;42.640;23.312;2023-06-14T05:46:48;12.68;;;6.03;;
20036;SDS011;10179;42.640;23.312;2023-06-14T05:49:13;11.23;;;5.45;;
20036;SDS011;10179;42.640;23.312;2023-06-14T05:51:39;18.92;;;6.40;;
20036;SDS011;10179;42.640;23.312;2023-06-14T05:54:04;12.43;;;6.22;;
20036;SDS011;10179;42.640;23.312;2023-06-14T05:56:30;10.52;;;6.25;;
20036;SDS011;10179;42.640;23.312;2023-06-14T05:58:55;15.18;;;6.22;;
20036;SDS011;10179;42.640;23.312;2023-06-14T06:01:20;11.65;;;6.18;;
20036;SDS011;10179;42.640;23.312;2023-06-14T06:03:46;12.40;;;6.47;;
20036;SDS011;10179;42.640;23.312;2023-06-14T06:06:12;11.02;;;6.63;;
20036;SDS011;10179;42.640;23.312;2023-06-14T06:08:38;13.48;;;6.97;;
20036;SDS011;10179;42.640;23.312;2023-06-14T06:11:04;14.85;;;6.72;;
20036;SDS011;10179;42.640;23.312;2023-06-14T06:13:29;15.75;;;7.40;;
20036;SDS011;10179;42.640;23.312;2023-06-14T06:15:55;14.43;;;6.72;;
20036;SDS011;10179;42.640;23.312;2023-06-14T06:18:21;16.35;;;7.95;;
20036;SDS011;10179;42.640;23.312;2023-06-14T06:20:46;13.90;;;8.05;;
20036;SDS011;10179;42.640;23.312;2023-06-14T06:23:12;16.58;;;9.07;;
20036;SDS011;10179;42.640;23.312;2023-06-14T06:25:37;21.90;;;8.05;;
20036;SDS011;10179;42.640;23.312;2023-06-14T06:28:03;17.73;;;8.38;;
20036;SDS011;10179;42.640;23.312;2023-06-14T06:30:28;22.77;;;7.68;;
20036;SDS011;10179;42.640;23.312;2023-06-14T06:32:54;15.45;;;7.63;;
20036;SDS011;10179;42.640;23.312;2023-06-14T06:35:20;11.85;;;7.38;;
20036;SDS011;10179;42.640;23.312;2023-06-14T06:37:46;16.00;;;8.00;;
20036;SDS011;10179;42.640;23.312;2023-06-14T06:40:11;19.08;;;6.80;;
20036;SDS011;10179;42.640;23.312;2023-06-14T06:42:37;17.23;;;7.85;;
20036;SDS011;10179;42.640;23.312;2023-06-14T06:45:03;18.35;;;9.15;;
20036;SDS011;10179;42.640;23.312;2023-06-14T06:47:29;22.15;;;8.73;;
20036;SDS011;10179;42.640;23.312;2023-06-14T06:49:55;14.57;;;8.20;;
20036;SDS011;10179;42.640;23.312;2023-06-14T06:52:20;17.30;;;8.55;;
20036;SDS011;10179;42.640;23.312;2023-06-14T06:54:45;16.00;;;8.30;;
20036;SDS011;10179;42.640;23.312;2023-06-14T06:57:11;13.63;;;7.82;;
20036;SDS011;10179;42.640;23.312;2023-06-14T06:59:37;34.28;;;9.40;;
20036;SDS011;10179;42.640;23.312;2023-06-14T07:02:02;21.77;;;7.65;;
20036;SDS011;10179;42.640;23.312;2023-06-14T07:04:28;13.95;;;7.80;;
20036;SDS011;10179;42.640;23.312;2023-06-14T07:06:53;17.95;;;8.05;;
20036;SDS011;10179;42.640;23.312;2023-06-14T07:09:19;18.45;;;8.00;;
20036;SDS011;10179;42.640;23.312;2023-06-14T07:11:46;14.93;;;8.30;;
20036;SDS011;10179;42.640;23.312;2023-06-14T07:14:12;15.80;;;8.80;;
20036;SDS011;10179;42.640;23.312;2023-06-14T07:16:38;19.75;;;8.10;;
20036;SDS011;10179;42.640;23.312;2023-06-14T07:19:03;25.40;;;8.00;;
20036;SDS011;10179;42.640;23.312;2023-06-14T07:21:29;29.38;;;8.70;;
20036;SDS011;10179;42.640;23.312;2023-06-14T07:23:54;15.55;;;7.95;;
20036;SDS011;10179;42.640;23.312;2023-06-14T07:26:20;26.27;;;7.63;;
20036;SDS011;10179;42.640;23.312;2023-06-14T07:28:46;22.92;;;8.05;;
20036;SDS011;10179;42.640;23.312;2023-06-14T07:31:13;13.93;;;7.72;;
20036;SDS011;10179;42.640;23.312;2023-06-14T07:33:39;21.75;;;7.93;;
20036;SDS011;10179;42.640;23.312;2023-06-14T07:36:05;23.45;;;7.93;;
20036;SDS011;10179;42.640;23.312;2023-06-14T07:38:30;15.00;;;8.18;;
20036;SDS011;10179;42.640;23.312;2023-06-14T07:40:56;13.27;;;7.15;;
20036;SDS011;10179;42.640;23.312;2023-06-14T07:43:21;12.57;;;7.03;;
20036;SDS011;10179;42.640;23.312;2023-06-14T07:45:47;12.30;;;6.95;;
20036;SDS011;10179;42.640;23.312;2023-06-14T07:48:12;12.55;;;7.32;;
20036;SDS011;10179;42.640;23.312;2023-06-14T07:50:37;16.05;;;7.57;;
20036;SDS011;10179;42.640;23.312;2023-06-14T07:53:03;28.42;;;7.93;;
20036;SDS011;10179;42.640;23.312;2023-06-14T07:55:28;17.98;;;7.03;;
20036;SDS011;10179;42.640;23.312;2023-06-14T07:57:54;17.02;;;7.28;;
20036;SDS011;10179;42.640;23.312;2023-06-14T08:00:19;12.30;;;7.20;;
20036;SDS011;10179;42.640;23.312;2023-06-14T08:02:45;15.10;;;7.07;;
20036;SDS011;10179;42.640;23.312;2023-06-14T08:05:11;10.90;;;6.57;;
20036;SDS011;10179;42.640;23.312;2023-06-14T08:07:37;21.63;;;7.30;;
20036;SDS011;10179;42.640;23.312;2023-06-14T08:10:04;17.27;;;7.65;;
20036;SDS011;10179;42.640;23.312;2023-06-14T08:12:31;20.58;;;8.35;;
20036;SDS011;10179;42.640;23.312;2023-06-14T08:14:57;27.38;;;8.60;;
20036;SDS011;10179;42.640;23.312;2023-06-14T08:17:23;22.90;;;9.05;;
20036;SDS011;10179;42.640;23.312;2023-06-14T08:19:48;14.98;;;8.35;;
20036;SDS011;10179;42.640;23.312;2023-06-14T08:22:14;13.48;;;7.90;;
20036;SDS011;10179;42.640;23.312;2023-06-14T08:24:40;17.88;;;8.77;;
20036;SDS011;10179;42.640;23.312;2023-06-14T08:27:06;22.23;;;7.75;;
20036;SDS011;10179;42.640;23.312;2023-06-14T08:29:31;19.15;;;8.48;;
20036;SDS011;10179;42.640;23.312;2023-06-14T08:31:57;22.27;;;8.15;;
20036;SDS011;10179;42.640;23.312;2023-06-14T08:34:23;49.60;;;9.88;;
20036;SDS011;10179;42.640;23.312;2023-06-14T08:36:50;21.40;;;8.35;;
20036;SDS011;10179;42.640;23.312;2023-06-14T08:39:15;32.95;;;8.68;;
20036;SDS011;10179;42.640;23.312;2023-06-14T08:41:41;20.25;;;7.93;;
20036;SDS011;10179;42.640;23.312;2023-06-14T08:44:10;16.77;;;7.93;;
20036;SDS011;10179;42.640;23.312;2023-06-14T08:46:36;17.88;;;8.60;;
20036;SDS011;10179;42.640;23.312;2023-06-14T08:49:02;12.93;;;7.63;;
20036;SDS011;10179;42.640;23.312;2023-06-14T08:51:31;15.00;;;7.60;;
20036;SDS011;10179;42.640;23.312;2023-06-14T08:53:58;15.45;;;7.97;;
20036;SDS011;10179;42.640;23.312;2023-06-14T08:56:26;21.13;;;7.97;;
20036;SDS011;10179;42.640;23.312;2023-06-14T08:58:59;19.90;;;8.20;;
20036;SDS011;10179;42.640;23.312;2023-06-14T09:01:28;16.60;;;8.25;;
20036;SDS011;10179;42.640;23.312;2023-06-14T09:03:53;12.25;;;7.43;;
20036;SDS011;10179;42.640;23.312;2023-06-14T09:06:22;19.52;;;7.72;;
20036;SDS011;10179;42.640;23.312;2023-06-14T09:08:49;18.85;;;8.68;;
20036;SDS011;10179;42.640;23.312;2023-06-14T09:11:16;11.55;;;7.43;;
20036;SDS011;10179;42.640;23.312;2023-06-14T09:13:44;14.57;;;8.20;;
20036;SDS011;10179;42.640;23.312;2023-06-14T09:16:10;14.88;;;7.72;;
20036;SDS011;10179;42.640;23.312;2023-06-14T09:18:43;16.98;;;7.88;;
20036;SDS011;10179;42.640;23.312;2023-06-14T09:21:10;17.55;;;7.20;;
20036;SDS011;10179;42.640;23.312;2023-06-14T09:23:39;17.58;;;8.13;;
20036;SDS011;10179;42.640;23.312;2023-06-14T09:26:09;14.57;;;7.80;;
20036;SDS011;10179;42.640;23.312;2023-06-14T09:28:36;17.10;;;8.45;;
20036;SDS011;10179;42.640;23.312;2023-06-14T09:31:05;26.10;;;8.60;;
20036;SDS011;10179;42.640;23.312;2023-06-14T09:33:33;13.90;;;8.23;;
20036;SDS011;10179;42.640;23.312;2023-06-14T09:35:59;18.60;;;7.75;;
20036;SDS011;10179;42.640;23.312;2023-06-14T09:38:25;20.98;;;8.55;;
20036;SDS011;10179;42.640;23.312;2023-06-14T09:40:51;14.77;;;8.43;;
20036;SDS011;10179;42.640;23.312;2023-06-14T09:43:17;12.75;;;7.82;;
20036;SDS011;10179;42.640;23.312;2023-06-14T09:45:52;17.80;;;7.93;;
20036;SDS011;10179;42.640;23.312;2023-06-14T09:48:19;26.02;;;8.10;;
20036;SDS011;10179;42.640;23.312;2023-06-14T09:50:45;19.27;;;7.07;;
20036;SDS011;10179;42.640;23.312;2023-06-14T09:53:11;14.18;;;7.50;;
20036;SDS011;10179;42.640;23.312;2023-06-14T09:55:38;16.95;;;8.45;;
20036;SDS011;10179;42.640;23.312;2023-06-14T09:58:06;13.77;;;7.93;;
20036;SDS011;10179;42.640;23.312;2023-06-14T10:00:33;17.55;;;7.88;;
20036;SDS011;10179;42.640;23.312;2023-06-14T10:03:00;12.15;;;7.38;;
20036;SDS011;10179;42.640;23.312;2023-06-14T10:05:31;11.27;;;7.10;;
20036;SDS011;10179;42.640;23.312;2023-06-14T10:08:00;13.77;;;7.75;;
20036;SDS011;10179;42.640;23.312;2023-06-14T10:13:22;16.73;;;7.85;;
20036;SDS011;10179;42.640;23.312;2023-06-14T10:15:51;18.90;;;7.75;;
20036;SDS011;10179;42.640;23.312;2023-06-14T10:42:19;27.92;;;9.13;;
20036;SDS011;10179;42.640;23.312;2023-06-14T10:44:45;14.80;;;7.75;;
20036;SDS011;10179;42.640;23.312;2023-06-14T10:52:33;21.98;;;8.57;;
20036;SDS011;10179;42.640;23.312;2023-06-14T10:57:44;14.10;;;6.85;;
20036;SDS011;10179;42.640;23.312;2023-06-14T11:00:11;10.43;;;6.55;;
20036;SDS011;10179;42.640;23.312;2023-06-14T11:05:30;16.27;;;6.72;;
20036;SDS011;10179;42.640;23.312;2023-06-14T11:08:26;8.23;;;5.60;;
20036;SDS011;10179;42.640;23.312;2023-06-14T11:10:58;10.32;;;6.90;;
20036;SDS011;10179;42.640;23.312;2023-06-14T11:13:25;10.82;;;6.88;;
20036;SDS011;10179;42.640;23.312;2023-06-14T11:15:51;11.85;;;6.78;;
20036;SDS011;10179;42.640;23.312;2023-06-14T11:18:21;12.90;;;6.72;;
20036;SDS011;10179;42.640;23.312;2023-06-14T11:20:49;8.95;;;5.93;;
20036;SDS011;10179;42.640;23.312;2023-06-14T11:23:16;10.85;;;6.10;;
20036;SDS011;10179;42.640;23.312;2023-06-14T11:25:41;11.90;;;6.28;;
20036;SDS011;10179;42.640;23.312;2023-06-14T11:28:07;9.75;;;6.30;;
20036;SDS011;10179;42.640;23.312;2023-06-14T11:30:32;9.30;;;5.70;;
20036;SDS011;10179;42.640;23.312;2023-06-14T11:32:58;12.05;;;6.40;;
20036;SDS011;10179;42.640;23.312;2023-06-14T11:35:24;13.07;;;6.65;;
20036;SDS011;10179;42.640;23.312;2023-06-14T11:37:54;10.15;;;6.57;;
20036;SDS011;10179;42.640;23.312;2023-06-14T11:40:23;12.23;;;6.70;;
20036;SDS011;10179;42.640;23.312;2023-06-14T11:42:53;10.85;;;5.55;;
20036;SDS011;10179;42.640;23.312;2023-06-14T11:45:24;8.55;;;5.22;;
20036;SDS011;10179;42.640;23.312;2023-06-14T11:47:50;18.20;;;6.43;;
20036;SDS011;10179;42.640;23.312;2023-06-14T11:50:15;8.02;;;5.47;;
20036;SDS011;10179;42.640;23.312;2023-06-14T11:52:40;7.97;;;4.88;;
20036;SDS011;10179;42.640;23.312;2023-06-14T11:55:06;7.72;;;4.97;;
20036;SDS011;10179;42.640;23.312;2023-06-14T11:57:35;12.05;;;5.10;;
20036;SDS011;10179;42.640;23.312;2023-06-14T12:00:04;8.80;;;5.07;;
20036;SDS011;10179;42.640;23.312;2023-06-14T12:02:36;11.48;;;5.60;;
20036;SDS011;10179;42.640;23.312;2023-06-14T12:05:05;9.98;;;5.57;;
20036;SDS011;10179;42.640;23.312;2023-06-14T12:07:36;8.38;;;4.85;;
20036;SDS011;10179;42.640;23.312;2023-06-14T12:12:28;7.22;;;4.90;;
20036;SDS011;10179;42.640;23.312;2023-06-14T12:14:57;25.70;;;5.85;;
20036;SDS011;10179;42.640;23.312;2023-06-14T12:17:22;10.05;;;5.38;;
20036;SDS011;10179;42.640;23.312;2023-06-14T12:19:48;7.97;;;4.85;;
20036;SDS011;10179;42.640;23.312;2023-06-14T12:22:15;10.27;;;4.75;;
20036;SDS011;10179;42.640;23.312;2023-06-14T12:24:42;8.77;;;5.35;;
20036;SDS011;10179;42.640;23.312;2023-06-14T12:27:08;6.25;;;4.60;;
20036;SDS011;10179;42.640;23.312;2023-06-14T12:29:35;10.15;;;5.18;;
20036;SDS011;10179;42.640;23.312;2023-06-14T12:32:01;10.07;;;5.47;;
20036;SDS011;10179;42.640;23.312;2023-06-14T12:34:26;10.32;;;5.40;;
20036;SDS011;10179;42.640;23.312;2023-06-14T12:36:52;10.45;;;5.65;;
20036;SDS011;10179;42.640;23.312;2023-06-14T12:39:18;9.93;;;4.95;;
20036;SDS011;10179;42.640;23.312;2023-06-14T12:41:44;8.35;;;4.80;;
20036;SDS011;10179;42.640;23.312;2023-06-14T12:44:10;7.85;;;4.68;;
20036;SDS011;10179;42.640;23.312;2023-06-14T12:46:36;6.25;;;4.60;;
20036;SDS011;10179;42.640;23.312;2023-06-14T12:49:04;7.28;;;4.35;;
20036;SDS011;10179;42.640;23.312;2023-06-14T12:51:30;7.63;;;4.43;;
20036;SDS011;10179;42.640;23.312;2023-06-14T12:53:55;9.02;;;4.65;;
20036;SDS011;10179;42.640;23.312;2023-06-14T12:56:21;8.73;;;4.90;;
20036;SDS011;10179;42.640;23.312;2023-06-14T12:58:46;16.48;;;5.25;;
20036;SDS011;10179;42.640;23.312;2023-06-14T13:01:12;11.88;;;5.07;;
20036;SDS011;10179;42.640;23.312;2023-06-14T13:03:37;8.82;;;4.65;;
20036;SDS011;10179;42.640;23.312;2023-06-14T13:06:02;10.77;;;5.03;;
20036;SDS011;10179;42.640;23.312;2023-06-14T13:08:29;8.23;;;4.63;;
20036;SDS011;10179;42.640;23.312;2023-06-14T13:10:55;8.82;;;5.22;;
20036;SDS011;10179;42.640;23.312;2023-06-14T13:13:20;8.48;;;5.13;;
20036;SDS011;10179;42.640;23.312;2023-06-14T13:15:46;6.80;;;4.90;;
20036;SDS011;10179;42.640;23.312;2023-06-14T13:18:12;12.77;;;5.65;;
20036;SDS011;10179;42.640;23.312;2023-06-14T13:20:40;10.90;;;5.93;;
20036;SDS011;10179;42.640;23.312;2023-06-14T13:23:07;8.88;;;5.72;;
20036;SDS011;10179;42.640;23.312;2023-06-14T13:25:35;8.07;;;4.95;;
20036;SDS011;10179;42.640;23.312;2023-06-14T13:28:03;12.25;;;5.10;;
20036;SDS011;10179;42.640;23.312;2023-06-14T13:30:29;8.35;;;5.40;;
20036;SDS011;10179;42.640;23.312;2023-06-14T13:32:55;11.32;;;5.75;;
20036;SDS011;10179;42.640;23.312;2023-06-14T13:35:21;8.93;;;5.13;;
20036;SDS011;10179;42.640;23.312;2023-06-14T13:37:47;11.02;;;5.50;;
20036;SDS011;10179;42.640;23.312;2023-06-14T13:40:12;7.47;;;5.50;;
20036;SDS011;10179;42.640;23.312;2023-06-14T13:42:38;9.23;;;5.32;;
20036;SDS011;10179;42.640;23.312;2023-06-14T13:45:04;10.57;;;5.82;;
20036;SDS011;10179;42.640;23.312;2023-06-14T13:47:30;11.10;;;5.90;;
20036;SDS011;10179;42.640;23.312;2023-06-14T13:49:56;11.23;;;6.53;;
20036;SDS011;10179;42.640;23.312;2023-06-14T13:52:22;9.52;;;6.05;;
20036;SDS011;10179;42.640;23.312;2023-06-14T13:54:47;10.82;;;6.55;;
20036;SDS011;10179;42.640;23.312;2023-06-14T13:57:13;10.38;;;6.00;;
20036;SDS011;10179;42.640;23.312;2023-06-14T13:59:39;9.13;;;5.68;;
20036;SDS011;10179;42.640;23.312;2023-06-14T14:26:27;6.20;;;3.63;;
20036;SDS011;10179;42.640;23.312;2023-06-14T14:28:53;6.75;;;4.10;;
20036;SDS011;10179;42.640;23.312;2023-06-14T14:31:18;4.95;;;3.78;;
20036;SDS011;10179;42.640;23.312;2023-06-14T14:33:44;5.60;;;3.78;;
20036;SDS011;10179;42.640;23.312;2023-06-14T14:36:09;5.85;;;3.85;;
20036;SDS011;10179;42.640;23.312;2023-06-14T14:38:35;7.10;;;4.13;;
20036;SDS011;10179;42.640;23.312;2023-06-14T14:41:00;5.82;;;3.95;;
20036;SDS011;10179;42.640;23.312;2023-06-14T14:43:26;7.95;;;4.20;;
20036;SDS011;10179;42.640;23.312;2023-06-14T14:45:51;6.13;;;3.83;;
20036;SDS011;10179;42.640;23.312;2023-06-14T14:48:17;6.95;;;4.38;;
20036;SDS011;10179;42.640;23.312;2023-06-14T14:50:42;7.93;;;4.82;;
20036;SDS011;10179;42.640;23.312;2023-06-14T14:53:08;6.75;;;4.35;;
20036;SDS011;10179;42.640;23.312;2023-06-14T14:55:33;8.88;;;5.00;;
20036;SDS011;10179;42.640;23.312;2023-06-14T14:58:01;10.55;;;5.60;;
20036;SDS011;10179;42.640;23.312;2023-06-14T15:00:28;8.70;;;4.97;;
20036;SDS011;10179;42.640;23.312;2023-06-14T15:02:53;11.52;;;6.07;;
20036;SDS011;10179;42.640;23.312;2023-06-14T15:05:19;8.73;;;4.95;;
20036;SDS011;10179;42.640;23.312;2023-06-14T15:07:44;12.90;;;6.55;;
20036;SDS011;10179;42.640;23.312;2023-06-14T15:10:10;11.32;;;6.35;;
20036;SDS011;10179;42.640;23.312;2023-06-14T15:12:36;9.80;;;6.18;;
20036;SDS011;10179;42.640;23.312;2023-06-14T15:15:02;14.43;;;6.50;;
20036;SDS011;10179;42.640;23.312;2023-06-14T15:17:27;11.65;;;7.00;;
20036;SDS011;10179;42.640;23.312;2023-06-14T15:19:53;13.55;;;7.82;;
20036;SDS011;10179;42.640;23.312;2023-06-14T15:22:19;18.35;;;6.95;;
20036;SDS011;10179;42.640;23.312;2023-06-14T15:24:44;10.20;;;6.30;;
20036;SDS011;10179;42.640;23.312;2023-06-14T15:27:11;11.55;;;6.95;;
20036;SDS011;10179;42.640;23.312;2023-06-14T15:29:37;12.63;;;7.07;;
20036;SDS011;10179;42.640;23.312;2023-06-14T15:32:04;11.93;;;7.10;;
20036;SDS011;10179;42.640;23.312;2023-06-14T15:34:30;10.80;;;6.47;;